sensor_id;sensor_type;location;lat;lon;timestamp;P1;durP1;ratioP1;P2;durP2;ratioP2
70169;SDS011;57543;45.442;9.212;2023-05-24T00:01:10;10.73;;;4.45;;
70169;SDS011;57543;45.442;9.212;2023-05-24T00:04:14;7.32;;;4.55;;
70169;SDS011;57543;45.442;9.212;2023-05-24T00:07:18;6.93;;;4.35;;
70169;SDS011;57543;45.442;9.212;2023-05-24T00:10:21;7.97;;;4.33;;
70169;SDS011;57543;45.442;9.212;2023-05-24T00:13:25;7.30;;;4.57;;
70169;SDS011;57543;45.442;9.212;2023-05-24T00:16:29;9.20;;;4.32;;
70169;SDS011;57543;45.442;9.212;2023-05-24T00:19:35;7.50;;;4.30;;
70169;SDS011;57543;45.442;9.212;2023-05-24T00:22:40;8.60;;;4.55;;
70169;SDS011;57543;45.442;9.212;2023-05-24T00:25:44;7.70;;;4.53;;
70169;SDS011;57543;45.442;9.212;2023-05-24T00:28:47;7.00;;;4.32;;
70169;SDS011;57543;45.442;9.212;2023-05-24T00:31:51;7.55;;;4.38;;
70169;SDS011;57543;45.442;9.212;2023-05-24T00:34:57;10.32;;;4.68;;
70169;SDS011;57543;45.442;9.212;2023-05-24T00:38:02;7.82;;;4.25;;
70169;SDS011;57543;45.442;9.212;2023-05-24T00:41:05;7.93;;;4.63;;
70169;SDS011;57543;45.442;9.212;2023-05-24T00:44:11;7.78;;;4.72;;
70169;SDS011;57543;45.442;9.212;2023-05-24T00:47:15;7.90;;;4.53;;
70169;SDS011;57543;45.442;9.212;2023-05-24T00:50:18;6.95;;;4.32;;
70169;SDS011;57543;45.442;9.212;2023-05-24T00:53:23;7.82;;;4.32;;
70169;SDS011;57543;45.442;9.212;2023-05-24T00:56:28;6.80;;;4.00;;
70169;SDS011;57543;45.442;9.212;2023-05-24T00:59:33;6.90;;;4.22;;
70169;SDS011;57543;45.442;9.212;2023-05-24T01:02:38;7.57;;;4.53;;
70169;SDS011;57543;45.442;9.212;2023-05-24T01:05:41;6.32;;;4.00;;
70169;SDS011;57543;45.442;9.212;2023-05-24T01:12:12;6.20;;;3.80;;
70169;SDS011;57543;45.442;9.212;2023-05-24T01:15:40;7.45;;;4.70;;
70169;SDS011;57543;45.442;9.212;2023-05-24T01:18:51;8.30;;;4.63;;
70169;SDS011;57543;45.442;9.212;2023-05-24T01:22:00;9.38;;;4.15;;
70169;SDS011;57543;45.442;9.212;2023-05-24T01:28:56;9.23;;;4.73;;
70169;SDS011;57543;45.442;9.212;2023-05-24T01:32:00;7.90;;;4.88;;
70169;SDS011;57543;45.442;9.212;2023-05-24T01:35:04;9.88;;;4.50;;
70169;SDS011;57543;45.442;9.212;2023-05-24T01:38:08;13.85;;;5.15;;
70169;SDS011;57543;45.442;9.212;2023-05-24T01:44:45;9.30;;;4.93;;
70169;SDS011;57543;45.442;9.212;2023-05-24T01:48:07;8.40;;;5.03;;
70169;SDS011;57543;45.442;9.212;2023-05-24T01:51:21;8.95;;;5.30;;
70169;SDS011;57543;45.442;9.212;2023-05-24T01:54:27;6.47;;;3.90;;
70169;SDS011;57543;45.442;9.212;2023-05-24T01:57:35;7.78;;;4.90;;
70169;SDS011;57543;45.442;9.212;2023-05-24T02:00:40;8.57;;;5.13;;
70169;SDS011;57543;45.442;9.212;2023-05-24T02:03:46;8.95;;;5.00;;
70169;SDS011;57543;45.442;9.212;2023-05-24T02:06:50;9.90;;;4.28;;
70169;SDS011;57543;45.442;9.212;2023-05-24T02:09:54;8.90;;;4.95;;
70169;SDS011;57543;45.442;9.212;2023-05-24T02:12:57;8.43;;;5.05;;
70169;SDS011;57543;45.442;9.212;2023-05-24T02:16:01;8.30;;;5.13;;
70169;SDS011;57543;45.442;9.212;2023-05-24T02:19:07;10.27;;;5.40;;
70169;SDS011;57543;45.442;9.212;2023-05-24T02:22:11;8.88;;;4.60;;
70169;SDS011;57543;45.442;9.212;2023-05-24T02:25:15;7.30;;;4.53;;
70169;SDS011;57543;45.442;9.212;2023-05-24T02:28:19;8.13;;;4.85;;
70169;SDS011;57543;45.442;9.212;2023-05-24T02:31:22;10.37;;;5.23;;
70169;SDS011;57543;45.442;9.212;2023-05-24T02:34:27;10.02;;;5.55;;
70169;SDS011;57543;45.442;9.212;2023-05-24T02:37:31;10.35;;;5.30;;
70169;SDS011;57543;45.442;9.212;2023-05-24T02:40:35;8.18;;;5.07;;
70169;SDS011;57543;45.442;9.212;2023-05-24T02:43:38;8.50;;;5.38;;
70169;SDS011;57543;45.442;9.212;2023-05-24T02:46:42;8.77;;;5.33;;
70169;SDS011;57543;45.442;9.212;2023-05-24T02:49:45;9.93;;;5.57;;
70169;SDS011;57543;45.442;9.212;2023-05-24T02:52:49;9.80;;;5.00;;
70169;SDS011;57543;45.442;9.212;2023-05-24T02:55:54;11.85;;;5.78;;
70169;SDS011;57543;45.442;9.212;2023-05-24T02:58:57;8.45;;;5.43;;
70169;SDS011;57543;45.442;9.212;2023-05-24T03:02:01;9.27;;;5.60;;
70169;SDS011;57543;45.442;9.212;2023-05-24T03:05:06;8.30;;;4.95;;
70169;SDS011;57543;45.442;9.212;2023-05-24T03:08:10;11.45;;;5.40;;
70169;SDS011;57543;45.442;9.212;2023-05-24T03:11:14;9.05;;;5.65;;
70169;SDS011;57543;45.442;9.212;2023-05-24T03:14:18;14.27;;;5.72;;
70169;SDS011;57543;45.442;9.212;2023-05-24T03:17:24;8.33;;;5.60;;
70169;SDS011;57543;45.442;9.212;2023-05-24T03:20:28;9.60;;;5.50;;
70169;SDS011;57543;45.442;9.212;2023-05-24T03:23:34;10.30;;;5.53;;
70169;SDS011;57543;45.442;9.212;2023-05-24T03:26:41;8.60;;;5.22;;
70169;SDS011;57543;45.442;9.212;2023-05-24T03:29:45;10.05;;;5.80;;
70169;SDS011;57543;45.442;9.212;2023-05-24T03:32:50;9.37;;;5.07;;
70169;SDS011;57543;45.442;9.212;2023-05-24T03:35:53;8.50;;;5.43;;
70169;SDS011;57543;45.442;9.212;2023-05-24T03:38:57;8.88;;;5.35;;
70169;SDS011;57543;45.442;9.212;2023-05-24T03:42:02;9.63;;;5.50;;
70169;SDS011;57543;45.442;9.212;2023-05-24T03:45:05;10.98;;;5.10;;
70169;SDS011;57543;45.442;9.212;2023-05-24T03:48:09;9.00;;;5.73;;
70169;SDS011;57543;45.442;9.212;2023-05-24T03:51:13;9.40;;;5.90;;
70169;SDS011;57543;45.442;9.212;2023-05-24T03:54:17;9.88;;;6.03;;
70169;SDS011;57543;45.442;9.212;2023-05-24T03:57:20;9.90;;;5.95;;
70169;SDS011;57543;45.442;9.212;2023-05-24T04:00:24;10.38;;;6.50;;
70169;SDS011;57543;45.442;9.212;2023-05-24T04:03:28;11.50;;;6.30;;
70169;SDS011;57543;45.442;9.212;2023-05-24T04:06:31;9.75;;;6.20;;
70169;SDS011;57543;45.442;9.212;2023-05-24T04:09:36;10.90;;;6.90;;
70169;SDS011;57543;45.442;9.212;2023-05-24T04:12:40;11.38;;;6.60;;
70169;SDS011;57543;45.442;9.212;2023-05-24T04:15:43;12.63;;;6.82;;
70169;SDS011;57543;45.442;9.212;2023-05-24T04:18:52;11.77;;;6.80;;
70169;SDS011;57543;45.442;9.212;2023-05-24T04:21:56;11.93;;;6.30;;
70169;SDS011;57543;45.442;9.212;2023-05-24T04:25:03;11.35;;;6.15;;
70169;SDS011;57543;45.442;9.212;2023-05-24T04:28:08;10.95;;;6.20;;
70169;SDS011;57543;45.442;9.212;2023-05-24T04:31:12;11.02;;;6.65;;
70169;SDS011;57543;45.442;9.212;2023-05-24T04:34:17;10.97;;;7.03;;
70169;SDS011;57543;45.442;9.212;2023-05-24T04:37:24;12.77;;;7.25;;
70169;SDS011;57543;45.442;9.212;2023-05-24T04:40:28;10.73;;;6.90;;
70169;SDS011;57543;45.442;9.212;2023-05-24T04:43:32;13.38;;;7.03;;
70169;SDS011;57543;45.442;9.212;2023-05-24T04:46:38;10.93;;;6.45;;
70169;SDS011;57543;45.442;9.212;2023-05-24T04:49:42;11.50;;;7.43;;
70169;SDS011;57543;45.442;9.212;2023-05-24T04:52:45;12.20;;;6.68;;
70169;SDS011;57543;45.442;9.212;2023-05-24T04:55:48;11.15;;;6.50;;
70169;SDS011;57543;45.442;9.212;2023-05-24T04:58:52;11.30;;;6.35;;
70169;SDS011;57543;45.442;9.212;2023-05-24T05:01:56;11.45;;;6.30;;
70169;SDS011;57543;45.442;9.212;2023-05-24T05:04:59;10.73;;;6.83;;
70169;SDS011;57543;45.442;9.212;2023-05-24T05:08:03;12.00;;;7.50;;
70169;SDS011;57543;45.442;9.212;2023-05-24T05:11:07;11.73;;;7.53;;
70169;SDS011;57543;45.442;9.212;2023-05-24T05:14:11;12.90;;;6.93;;
70169;SDS011;57543;45.442;9.212;2023-05-24T05:17:14;12.40;;;6.88;;
70169;SDS011;57543;45.442;9.212;2023-05-24T05:20:18;13.83;;;7.87;;
70169;SDS011;57543;45.442;9.212;2023-05-24T05:23:22;12.73;;;8.02;;
70169;SDS011;57543;45.442;9.212;2023-05-24T05:26:26;11.88;;;7.22;;
70169;SDS011;57543;45.442;9.212;2023-05-24T05:29:30;16.60;;;7.93;;
70169;SDS011;57543;45.442;9.212;2023-05-24T05:32:33;11.93;;;7.55;;
70169;SDS011;57543;45.442;9.212;2023-05-24T05:35:38;13.30;;;7.70;;
70169;SDS011;57543;45.442;9.212;2023-05-24T05:38:41;13.25;;;8.05;;
70169;SDS011;57543;45.442;9.212;2023-05-24T05:41:45;13.10;;;7.65;;
70169;SDS011;57543;45.442;9.212;2023-05-24T05:44:49;12.88;;;7.57;;
70169;SDS011;57543;45.442;9.212;2023-05-24T05:47:53;12.13;;;8.18;;
70169;SDS011;57543;45.442;9.212;2023-05-24T05:50:56;12.67;;;7.70;;
70169;SDS011;57543;45.442;9.212;2023-05-24T05:53:59;15.02;;;7.97;;
70169;SDS011;57543;45.442;9.212;2023-05-24T05:57:03;14.45;;;7.70;;
70169;SDS011;57543;45.442;9.212;2023-05-24T06:00:07;11.38;;;6.85;;
70169;SDS011;57543;45.442;9.212;2023-05-24T06:03:15;12.57;;;7.78;;
70169;SDS011;57543;45.442;9.212;2023-05-24T06:06:19;16.30;;;8.37;;
70169;SDS011;57543;45.442;9.212;2023-05-24T06:09:22;15.32;;;8.40;;
70169;SDS011;57543;45.442;9.212;2023-05-24T06:12:26;14.40;;;7.82;;
70169;SDS011;57543;45.442;9.212;2023-05-24T06:15:30;12.40;;;7.25;;
70169;SDS011;57543;45.442;9.212;2023-05-24T06:18:35;12.65;;;7.30;;
70169;SDS011;57543;45.442;9.212;2023-05-24T06:21:39;13.17;;;8.17;;
70169;SDS011;57543;45.442;9.212;2023-05-24T06:24:49;14.52;;;8.13;;
70169;SDS011;57543;45.442;9.212;2023-05-24T06:27:53;15.25;;;7.50;;
70169;SDS011;57543;45.442;9.212;2023-05-24T06:30:56;14.13;;;8.13;;
70169;SDS011;57543;45.442;9.212;2023-05-24T06:34:00;13.77;;;8.80;;
70169;SDS011;57543;45.442;9.212;2023-05-24T06:37:04;16.03;;;8.83;;
70169;SDS011;57543;45.442;9.212;2023-05-24T06:40:07;13.57;;;8.55;;
70169;SDS011;57543;45.442;9.212;2023-05-24T06:43:13;16.25;;;9.23;;
70169;SDS011;57543;45.442;9.212;2023-05-24T06:46:17;14.52;;;9.63;;
70169;SDS011;57543;45.442;9.212;2023-05-24T06:49:23;16.95;;;10.85;;
70169;SDS011;57543;45.442;9.212;2023-05-24T06:52:27;22.93;;;12.87;;
70169;SDS011;57543;45.442;9.212;2023-05-24T06:55:31;20.05;;;10.77;;
70169;SDS011;57543;45.442;9.212;2023-05-24T06:58:34;18.45;;;9.80;;
70169;SDS011;57543;45.442;9.212;2023-05-24T07:01:38;19.52;;;12.63;;
70169;SDS011;57543;45.442;9.212;2023-05-24T07:04:45;18.00;;;11.30;;
70169;SDS011;57543;45.442;9.212;2023-05-24T07:07:48;15.43;;;9.47;;
70169;SDS011;57543;45.442;9.212;2023-05-24T07:10:52;14.77;;;10.00;;
70169;SDS011;57543;45.442;9.212;2023-05-24T07:13:56;19.77;;;12.32;;
70169;SDS011;57543;45.442;9.212;2023-05-24T07:17:00;15.55;;;9.73;;
70169;SDS011;57543;45.442;9.212;2023-05-24T07:20:03;14.68;;;9.50;;
70169;SDS011;57543;45.442;9.212;2023-05-24T07:23:12;17.40;;;11.30;;
70169;SDS011;57543;45.442;9.212;2023-05-24T07:26:16;17.50;;;11.00;;
70169;SDS011;57543;45.442;9.212;2023-05-24T07:29:20;19.33;;;10.82;;
70169;SDS011;57543;45.442;9.212;2023-05-24T07:32:23;16.70;;;10.52;;
70169;SDS011;57543;45.442;9.212;2023-05-24T07:35:27;20.50;;;12.93;;
70169;SDS011;57543;45.442;9.212;2023-05-24T07:38:31;22.80;;;14.13;;
70169;SDS011;57543;45.442;9.212;2023-05-24T07:41:36;19.25;;;12.63;;
70169;SDS011;57543;45.442;9.212;2023-05-24T07:44:40;23.50;;;14.20;;
70169;SDS011;57543;45.442;9.212;2023-05-24T07:47:44;25.88;;;14.85;;
70169;SDS011;57543;45.442;9.212;2023-05-24T07:50:48;18.35;;;11.40;;
70169;SDS011;57543;45.442;9.212;2023-05-24T07:53:54;21.93;;;13.37;;
70169;SDS011;57543;45.442;9.212;2023-05-24T07:56:58;21.08;;;14.45;;
70169;SDS011;57543;45.442;9.212;2023-05-24T08:00:01;24.85;;;14.48;;
70169;SDS011;57543;45.442;9.212;2023-05-24T08:03:14;21.73;;;13.23;;
70169;SDS011;57543;45.442;9.212;2023-05-24T08:06:19;20.73;;;12.65;;
70169;SDS011;57543;45.442;9.212;2023-05-24T08:09:23;22.73;;;13.53;;
70169;SDS011;57543;45.442;9.212;2023-05-24T08:12:26;25.83;;;15.93;;
70169;SDS011;57543;45.442;9.212;2023-05-24T08:15:32;24.67;;;13.98;;
70169;SDS011;57543;45.442;9.212;2023-05-24T08:18:35;24.60;;;14.50;;
70169;SDS011;57543;45.442;9.212;2023-05-24T08:21:39;16.13;;;11.00;;
70169;SDS011;57543;45.442;9.212;2023-05-24T08:24:44;18.57;;;11.67;;
70169;SDS011;57543;45.442;9.212;2023-05-24T08:27:47;26.20;;;15.32;;
70169;SDS011;57543;45.442;9.212;2023-05-24T08:30:51;37.60;;;16.65;;
70169;SDS011;57543;45.442;9.212;2023-05-24T08:33:54;22.80;;;13.13;;
70169;SDS011;57543;45.442;9.212;2023-05-24T08:36:59;23.02;;;13.65;;
70169;SDS011;57543;45.442;9.212;2023-05-24T08:40:03;22.47;;;13.73;;
70169;SDS011;57543;45.442;9.212;2023-05-24T08:43:07;26.45;;;16.20;;
70169;SDS011;57543;45.442;9.212;2023-05-24T08:46:16;21.33;;;13.40;;
70169;SDS011;57543;45.442;9.212;2023-05-24T08:49:20;23.60;;;15.38;;
70169;SDS011;57543;45.442;9.212;2023-05-24T08:52:23;25.73;;;15.70;;
70169;SDS011;57543;45.442;9.212;2023-05-24T08:55:29;22.80;;;14.00;;
70169;SDS011;57543;45.442;9.212;2023-05-24T08:58:33;19.20;;;12.55;;
70169;SDS011;57543;45.442;9.212;2023-05-24T09:01:37;22.00;;;13.43;;
70169;SDS011;57543;45.442;9.212;2023-05-24T09:05:02;28.38;;;16.35;;
70169;SDS011;57543;45.442;9.212;2023-05-24T09:08:08;25.48;;;15.25;;
70169;SDS011;57543;45.442;9.212;2023-05-24T09:11:13;23.27;;;14.67;;
70169;SDS011;57543;45.442;9.212;2023-05-24T09:14:18;20.20;;;12.38;;
70169;SDS011;57543;45.442;9.212;2023-05-24T09:17:22;21.70;;;13.30;;
70169;SDS011;57543;45.442;9.212;2023-05-24T09:20:26;27.17;;;15.95;;
70169;SDS011;57543;45.442;9.212;2023-05-24T09:23:30;21.50;;;13.75;;
70169;SDS011;57543;45.442;9.212;2023-05-24T09:26:37;28.37;;;15.60;;
70169;SDS011;57543;45.442;9.212;2023-05-24T09:29:40;19.42;;;12.27;;
70169;SDS011;57543;45.442;9.212;2023-05-24T09:32:58;24.40;;;13.98;;
70169;SDS011;57543;45.442;9.212;2023-05-24T09:36:03;18.75;;;12.10;;
70169;SDS011;57543;45.442;9.212;2023-05-24T09:39:08;21.80;;;13.55;;
70169;SDS011;57543;45.442;9.212;2023-05-24T09:42:19;34.17;;;18.97;;
70169;SDS011;57543;45.442;9.212;2023-05-24T09:45:26;30.10;;;18.25;;
70169;SDS011;57543;45.442;9.212;2023-05-24T09:48:30;29.67;;;18.15;;
70169;SDS011;57543;45.442;9.212;2023-05-24T09:51:37;26.75;;;15.45;;
70169;SDS011;57543;45.442;9.212;2023-05-24T09:54:41;32.13;;;17.67;;
70169;SDS011;57543;45.442;9.212;2023-05-24T09:58:04;30.17;;;17.10;;
70169;SDS011;57543;45.442;9.212;2023-05-24T10:01:16;21.77;;;14.80;;
70169;SDS011;57543;45.442;9.212;2023-05-24T10:04:31;20.55;;;12.55;;
70169;SDS011;57543;45.442;9.212;2023-05-24T10:07:36;18.40;;;10.40;;
70169;SDS011;57543;45.442;9.212;2023-05-24T10:10:39;19.85;;;11.88;;
70169;SDS011;57543;45.442;9.212;2023-05-24T10:13:44;15.57;;;10.00;;
70169;SDS011;57543;45.442;9.212;2023-05-24T10:16:49;14.48;;;8.85;;
70169;SDS011;57543;45.442;9.212;2023-05-24T10:19:53;21.40;;;12.07;;
70169;SDS011;57543;45.442;9.212;2023-05-24T10:22:58;18.98;;;10.40;;
70169;SDS011;57543;45.442;9.212;2023-05-24T10:26:07;15.82;;;10.43;;
70169;SDS011;57543;45.442;9.212;2023-05-24T10:29:14;15.57;;;9.27;;
70169;SDS011;57543;45.442;9.212;2023-05-24T10:32:24;12.73;;;7.30;;
70169;SDS011;57543;45.442;9.212;2023-05-24T10:35:33;15.55;;;9.35;;
70169;SDS011;57543;45.442;9.212;2023-05-24T10:38:40;14.80;;;9.48;;
70169;SDS011;57543;45.442;9.212;2023-05-24T10:41:43;20.67;;;12.98;;
70169;SDS011;57543;45.442;9.212;2023-05-24T10:44:47;16.30;;;9.63;;
70169;SDS011;57543;45.442;9.212;2023-05-24T10:47:51;15.82;;;8.73;;
70169;SDS011;57543;45.442;9.212;2023-05-24T10:50:55;16.05;;;9.23;;
70169;SDS011;57543;45.442;9.212;2023-05-24T10:57:31;13.05;;;8.85;;
70169;SDS011;57543;45.442;9.212;2023-05-24T11:00:42;18.23;;;9.93;;
70169;SDS011;57543;45.442;9.212;2023-05-24T11:03:46;15.32;;;8.20;;
70169;SDS011;57543;45.442;9.212;2023-05-24T11:06:54;18.92;;;9.60;;
70169;SDS011;57543;45.442;9.212;2023-05-24T11:09:58;14.50;;;8.50;;
70169;SDS011;57543;45.442;9.212;2023-05-24T11:13:09;13.10;;;8.60;;
70169;SDS011;57543;45.442;9.212;2023-05-24T11:16:32;13.13;;;8.47;;
70169;SDS011;57543;45.442;9.212;2023-05-24T11:20:00;15.52;;;9.10;;
70169;SDS011;57543;45.442;9.212;2023-05-24T11:23:05;17.50;;;10.45;;
70169;SDS011;57543;45.442;9.212;2023-05-24T11:26:11;21.20;;;11.27;;
70169;SDS011;57543;45.442;9.212;2023-05-24T11:29:15;15.98;;;10.73;;
70169;SDS011;57543;45.442;9.212;2023-05-24T11:32:20;14.75;;;9.25;;
70169;SDS011;57543;45.442;9.212;2023-05-24T11:35:26;17.67;;;10.23;;
70169;SDS011;57543;45.442;9.212;2023-05-24T11:38:30;18.85;;;10.43;;
70169;SDS011;57543;45.442;9.212;2023-05-24T11:41:34;22.13;;;11.55;;
70169;SDS011;57543;45.442;9.212;2023-05-24T11:44:42;18.25;;;12.02;;
70169;SDS011;57543;45.442;9.212;2023-05-24T11:47:47;15.57;;;9.57;;
70169;SDS011;57543;45.442;9.212;2023-05-24T11:50:53;16.27;;;9.52;;
70169;SDS011;57543;45.442;9.212;2023-05-24T11:53:57;17.38;;;10.02;;
70169;SDS011;57543;45.442;9.212;2023-05-24T11:57:01;18.58;;;11.27;;
70169;SDS011;57543;45.442;9.212;2023-05-24T12:00:05;19.60;;;9.95;;
70169;SDS011;57543;45.442;9.212;2023-05-24T12:03:13;19.07;;;11.20;;
70169;SDS011;57543;45.442;9.212;2023-05-24T12:06:16;17.70;;;10.20;;
70169;SDS011;57543;45.442;9.212;2023-05-24T12:09:20;18.45;;;10.38;;
70169;SDS011;57543;45.442;9.212;2023-05-24T12:12:24;13.52;;;8.20;;
70169;SDS011;57543;45.442;9.212;2023-05-24T12:15:28;17.02;;;10.90;;
70169;SDS011;57543;45.442;9.212;2023-05-24T12:18:32;11.70;;;8.20;;
70169;SDS011;57543;45.442;9.212;2023-05-24T12:21:39;14.00;;;8.55;;
70169;SDS011;57543;45.442;9.212;2023-05-24T12:24:43;17.10;;;9.85;;
70169;SDS011;57543;45.442;9.212;2023-05-24T12:27:51;15.13;;;8.90;;
70169;SDS011;57543;45.442;9.212;2023-05-24T12:30:57;12.45;;;7.93;;
70169;SDS011;57543;45.442;9.212;2023-05-24T12:34:01;15.60;;;8.40;;
70169;SDS011;57543;45.442;9.212;2023-05-24T12:37:06;11.95;;;7.57;;
70169;SDS011;57543;45.442;9.212;2023-05-24T12:40:18;12.02;;;8.88;;
70169;SDS011;57543;45.442;9.212;2023-05-24T12:43:23;11.65;;;7.32;;
70169;SDS011;57543;45.442;9.212;2023-05-24T12:46:27;16.20;;;9.27;;
70169;SDS011;57543;45.442;9.212;2023-05-24T12:49:30;13.70;;;9.53;;
70169;SDS011;57543;45.442;9.212;2023-05-24T12:52:35;15.52;;;8.32;;
70169;SDS011;57543;45.442;9.212;2023-05-24T12:55:38;14.23;;;6.90;;
70169;SDS011;57543;45.442;9.212;2023-05-24T12:58:42;11.73;;;6.68;;
70169;SDS011;57543;45.442;9.212;2023-05-24T13:01:45;9.93;;;6.50;;
70169;SDS011;57543;45.442;9.212;2023-05-24T13:04:52;10.20;;;6.03;;
70169;SDS011;57543;45.442;9.212;2023-05-24T13:07:56;9.60;;;6.68;;
70169;SDS011;57543;45.442;9.212;2023-05-24T13:11:00;10.68;;;6.55;;
70169;SDS011;57543;45.442;9.212;2023-05-24T13:14:04;10.25;;;6.13;;
70169;SDS011;57543;45.442;9.212;2023-05-24T13:17:07;10.77;;;7.75;;
70169;SDS011;57543;45.442;9.212;2023-05-24T13:20:12;12.63;;;8.70;;
70169;SDS011;57543;45.442;9.212;2023-05-24T13:23:16;16.38;;;10.15;;
70169;SDS011;57543;45.442;9.212;2023-05-24T13:26:20;17.67;;;11.57;;
70169;SDS011;57543;45.442;9.212;2023-05-24T13:29:24;13.77;;;9.43;;
70169;SDS011;57543;45.442;9.212;2023-05-24T13:32:28;19.70;;;13.52;;
70169;SDS011;57543;45.442;9.212;2023-05-24T13:35:32;20.70;;;13.70;;
70169;SDS011;57543;45.442;9.212;2023-05-24T13:38:36;14.82;;;10.07;;
70169;SDS011;57543;45.442;9.212;2023-05-24T13:41:40;14.98;;;11.05;;
70169;SDS011;57543;45.442;9.212;2023-05-24T13:44:44;15.45;;;10.30;;
70169;SDS011;57543;45.442;9.212;2023-05-24T13:47:48;16.13;;;11.20;;
70169;SDS011;57543;45.442;9.212;2023-05-24T13:50:52;13.07;;;9.93;;
70169;SDS011;57543;45.442;9.212;2023-05-24T13:53:55;12.90;;;8.65;;
70169;SDS011;57543;45.442;9.212;2023-05-24T13:56:59;13.57;;;9.43;;
70169;SDS011;57543;45.442;9.212;2023-05-24T14:00:04;14.82;;;8.77;;
70169;SDS011;57543;45.442;9.212;2023-05-24T14:03:11;10.82;;;8.15;;
70169;SDS011;57543;45.442;9.212;2023-05-24T14:06:15;9.30;;;6.57;;
70169;SDS011;57543;45.442;9.212;2023-05-24T14:09:19;9.63;;;6.88;;
70169;SDS011;57543;45.442;9.212;2023-05-24T14:12:23;9.93;;;6.88;;
70169;SDS011;57543;45.442;9.212;2023-05-24T14:15:27;15.10;;;9.18;;
70169;SDS011;57543;45.442;9.212;2023-05-24T14:18:32;12.77;;;9.30;;
70169;SDS011;57543;45.442;9.212;2023-05-24T14:21:36;11.63;;;9.13;;
70169;SDS011;57543;45.442;9.212;2023-05-24T14:24:39;12.27;;;9.60;;
70169;SDS011;57543;45.442;9.212;2023-05-24T14:27:42;14.38;;;9.23;;
70169;SDS011;57543;45.442;9.212;2023-05-24T14:30:49;12.02;;;9.43;;
70169;SDS011;57543;45.442;9.212;2023-05-24T14:33:53;13.18;;;9.40;;
70169;SDS011;57543;45.442;9.212;2023-05-24T14:36:57;12.50;;;8.40;;
70169;SDS011;57543;45.442;9.212;2023-05-24T14:40:00;12.15;;;7.72;;
70169;SDS011;57543;45.442;9.212;2023-05-24T14:43:05;13.20;;;8.25;;
70169;SDS011;57543;45.442;9.212;2023-05-24T14:46:09;15.25;;;9.55;;
70169;SDS011;57543;45.442;9.212;2023-05-24T14:49:13;12.68;;;8.70;;
70169;SDS011;57543;45.442;9.212;2023-05-24T14:52:17;12.67;;;8.33;;
70169;SDS011;57543;45.442;9.212;2023-05-24T14:55:20;13.30;;;8.40;;
70169;SDS011;57543;45.442;9.212;2023-05-24T14:58:25;12.43;;;8.90;;
70169;SDS011;57543;45.442;9.212;2023-05-24T15:01:29;12.50;;;8.05;;
70169;SDS011;57543;45.442;9.212;2023-05-24T15:04:33;9.85;;;6.93;;
70169;SDS011;57543;45.442;9.212;2023-05-24T15:07:37;12.47;;;7.33;;
70169;SDS011;57543;45.442;9.212;2023-05-24T15:10:40;9.82;;;6.40;;
70169;SDS011;57543;45.442;9.212;2023-05-24T15:13:46;9.68;;;6.53;;
70169;SDS011;57543;45.442;9.212;2023-05-24T15:16:49;10.02;;;5.90;;
70169;SDS011;57543;45.442;9.212;2023-05-24T15:19:55;7.88;;;5.75;;
70169;SDS011;57543;45.442;9.212;2023-05-24T15:23:01;10.83;;;6.10;;
70169;SDS011;57543;45.442;9.212;2023-05-24T15:26:05;8.43;;;5.32;;
70169;SDS011;57543;45.442;9.212;2023-05-24T15:29:10;8.02;;;5.30;;
70169;SDS011;57543;45.442;9.212;2023-05-24T15:32:14;9.07;;;5.68;;
70169;SDS011;57543;45.442;9.212;2023-05-24T15:35:17;9.38;;;5.68;;
70169;SDS011;57543;45.442;9.212;2023-05-24T15:38:21;10.87;;;6.80;;
70169;SDS011;57543;45.442;9.212;2023-05-24T15:41:25;12.32;;;6.93;;
70169;SDS011;57543;45.442;9.212;2023-05-24T15:44:32;11.07;;;7.45;;
70169;SDS011;57543;45.442;9.212;2023-05-24T15:47:36;13.95;;;7.20;;
70169;SDS011;57543;45.442;9.212;2023-05-24T15:50:42;10.85;;;7.30;;
70169;SDS011;57543;45.442;9.212;2023-05-24T15:53:46;10.43;;;7.30;;
70169;SDS011;57543;45.442;9.212;2023-05-24T15:56:50;9.98;;;6.97;;
70169;SDS011;57543;45.442;9.212;2023-05-24T15:59:53;10.90;;;7.63;;
70169;SDS011;57543;45.442;9.212;2023-05-24T16:02:57;10.38;;;7.00;;
70169;SDS011;57543;45.442;9.212;2023-05-24T16:06:01;10.25;;;6.68;;
70169;SDS011;57543;45.442;9.212;2023-05-24T16:09:04;12.23;;;7.80;;
70169;SDS011;57543;45.442;9.212;2023-05-24T16:12:09;10.90;;;6.65;;
70169;SDS011;57543;45.442;9.212;2023-05-24T16:15:12;8.98;;;7.00;;
70169;SDS011;57543;45.442;9.212;2023-05-24T16:18:17;11.75;;;8.55;;
70169;SDS011;57543;45.442;9.212;2023-05-24T16:21:24;10.05;;;6.20;;
70169;SDS011;57543;45.442;9.212;2023-05-24T16:24:30;9.60;;;6.80;;
70169;SDS011;57543;45.442;9.212;2023-05-24T16:27:33;9.82;;;6.32;;
70169;SDS011;57543;45.442;9.212;2023-05-24T16:30:37;9.20;;;6.00;;
70169;SDS011;57543;45.442;9.212;2023-05-24T16:33:41;15.50;;;9.20;;
70169;SDS011;57543;45.442;9.212;2023-05-24T16:36:44;10.93;;;7.93;;
70169;SDS011;57543;45.442;9.212;2023-05-24T16:39:49;12.87;;;8.80;;
70169;SDS011;57543;45.442;9.212;2023-05-24T16:42:53;14.55;;;9.25;;
70169;SDS011;57543;45.442;9.212;2023-05-24T16:45:57;16.33;;;9.98;;
70169;SDS011;57543;45.442;9.212;2023-05-24T16:49:01;11.85;;;8.05;;
70169;SDS011;57543;45.442;9.212;2023-05-24T16:52:05;11.88;;;7.97;;
70169;SDS011;57543;45.442;9.212;2023-05-24T16:55:10;11.90;;;8.23;;
70169;SDS011;57543;45.442;9.212;2023-05-24T16:58:14;12.02;;;7.55;;
70169;SDS011;57543;45.442;9.212;2023-05-24T17:01:18;10.23;;;6.72;;
70169;SDS011;57543;45.442;9.212;2023-05-24T17:04:22;10.77;;;6.13;;
70169;SDS011;57543;45.442;9.212;2023-05-24T17:07:25;10.68;;;6.80;;
70169;SDS011;57543;45.442;9.212;2023-05-24T17:10:32;12.07;;;6.73;;
70169;SDS011;57543;45.442;9.212;2023-05-24T17:13:36;10.15;;;6.30;;
70169;SDS011;57543;45.442;9.212;2023-05-24T17:16:40;10.43;;;6.82;;
70169;SDS011;57543;45.442;9.212;2023-05-24T17:19:43;11.45;;;6.90;;
70169;SDS011;57543;45.442;9.212;2023-05-24T17:22:47;10.15;;;5.93;;
70169;SDS011;57543;45.442;9.212;2023-05-24T17:25:51;12.30;;;6.80;;
70169;SDS011;57543;45.442;9.212;2023-05-24T17:28:56;15.02;;;7.78;;
70169;SDS011;57543;45.442;9.212;2023-05-24T17:32:00;11.00;;;6.95;;
70169;SDS011;57543;45.442;9.212;2023-05-24T17:35:04;9.95;;;6.00;;
70169;SDS011;57543;45.442;9.212;2023-05-24T17:38:07;12.23;;;7.35;;
70169;SDS011;57543;45.442;9.212;2023-05-24T17:41:10;12.50;;;7.50;;
70169;SDS011;57543;45.442;9.212;2023-05-24T17:44:15;9.73;;;6.30;;
70169;SDS011;57543;45.442;9.212;2023-05-24T17:47:19;9.65;;;6.07;;
70169;SDS011;57543;45.442;9.212;2023-05-24T17:50:22;12.05;;;7.00;;
70169;SDS011;57543;45.442;9.212;2023-05-24T17:53:27;11.55;;;6.50;;
70169;SDS011;57543;45.442;9.212;2023-05-24T17:56:35;13.10;;;6.10;;
70169;SDS011;57543;45.442;9.212;2023-05-24T17:59:38;10.63;;;6.10;;
70169;SDS011;57543;45.442;9.212;2023-05-24T18:02:42;9.65;;;5.88;;
70169;SDS011;57543;45.442;9.212;2023-05-24T18:05:46;9.70;;;6.50;;
70169;SDS011;57543;45.442;9.212;2023-05-24T18:08:49;9.02;;;5.38;;
70169;SDS011;57543;45.442;9.212;2023-05-24T18:11:53;11.23;;;5.80;;
70169;SDS011;57543;45.442;9.212;2023-05-24T18:14:56;12.55;;;6.00;;
70169;SDS011;57543;45.442;9.212;2023-05-24T18:18:01;17.65;;;8.88;;
70169;SDS011;57543;45.442;9.212;2023-05-24T18:21:06;19.70;;;8.75;;
70169;SDS011;57543;45.442;9.212;2023-05-24T18:24:11;16.40;;;8.00;;
70169;SDS011;57543;45.442;9.212;2023-05-24T18:27:14;19.33;;;9.73;;
70169;SDS011;57543;45.442;9.212;2023-05-24T18:30:18;19.98;;;10.45;;